sensor_id;sensor_type;location;lat;lon;timestamp;P1;durP1;ratioP1;P2;durP2;ratioP2
76552;SDS011;65395;53.168;18.156;2023-04-24T00:01:06;15.50;;;8.20;;
76552;SDS011;65395;53.168;18.156;2023-04-24T00:03:33;9.30;;;7.80;;
76552;SDS011;65395;53.168;18.156;2023-04-24T00:06:00;9.70;;;7.90;;
76552;SDS011;65395;53.168;18.156;2023-04-24T00:08:28;10.80;;;8.40;;
76552;SDS011;65395;53.168;18.156;2023-04-24T00:10:55;10.50;;;8.30;;
76552;SDS011;65395;53.168;18.156;2023-04-24T00:13:22;9.90;;;8.10;;
76552;SDS011;65395;53.168;18.156;2023-04-24T00:15:49;8.60;;;7.50;;
76552;SDS011;65395;53.168;18.156;2023-04-24T00:18:16;9.10;;;7.40;;
76552;SDS011;65395;53.168;18.156;2023-04-24T00:20:43;10.30;;;7.90;;
76552;SDS011;65395;53.168;18.156;2023-04-24T00:23:11;13.00;;;9.20;;
76552;SDS011;65395;53.168;18.156;2023-04-24T00:25:37;14.10;;;8.70;;
76552;SDS011;65395;53.168;18.156;2023-04-24T00:28:04;12.40;;;9.20;;
76552;SDS011;65395;53.168;18.156;2023-04-24T00:30:32;13.00;;;9.40;;
76552;SDS011;65395;53.168;18.156;2023-04-24T00:32:58;14.00;;;9.00;;
76552;SDS011;65395;53.168;18.156;2023-04-24T00:35:25;11.80;;;8.90;;
76552;SDS011;65395;53.168;18.156;2023-04-24T00:37:52;11.30;;;8.40;;
76552;SDS011;65395;53.168;18.156;2023-04-24T00:40:19;9.70;;;8.00;;
76552;SDS011;65395;53.168;18.156;2023-04-24T00:42:46;10.90;;;7.70;;
76552;SDS011;65395;53.168;18.156;2023-04-24T00:45:12;10.10;;;8.50;;
76552;SDS011;65395;53.168;18.156;2023-04-24T00:47:39;14.90;;;10.50;;
76552;SDS011;65395;53.168;18.156;2023-04-24T00:50:08;17.60;;;11.30;;
76552;SDS011;65395;53.168;18.156;2023-04-24T00:52:35;14.40;;;10.10;;
76552;SDS011;65395;53.168;18.156;2023-04-24T00:55:02;13.30;;;10.10;;
76552;SDS011;65395;53.168;18.156;2023-04-24T00:57:30;15.70;;;10.00;;
76552;SDS011;65395;53.168;18.156;2023-04-24T00:59:57;12.40;;;9.20;;
76552;SDS011;65395;53.168;18.156;2023-04-24T01:02:24;14.30;;;10.20;;
76552;SDS011;65395;53.168;18.156;2023-04-24T01:04:51;16.50;;;9.50;;
76552;SDS011;65395;53.168;18.156;2023-04-24T01:07:19;14.50;;;9.80;;
76552;SDS011;65395;53.168;18.156;2023-04-24T01:09:47;11.50;;;8.90;;
76552;SDS011;65395;53.168;18.156;2023-04-24T01:12:19;12.20;;;9.10;;
76552;SDS011;65395;53.168;18.156;2023-04-24T01:14:45;11.80;;;9.20;;
76552;SDS011;65395;53.168;18.156;2023-04-24T01:17:12;11.40;;;8.60;;
76552;SDS011;65395;53.168;18.156;2023-04-24T01:19:39;11.00;;;8.50;;
76552;SDS011;65395;53.168;18.156;2023-04-24T01:22:08;12.40;;;8.70;;
76552;SDS011;65395;53.168;18.156;2023-04-24T01:24:38;15.40;;;10.10;;
76552;SDS011;65395;53.168;18.156;2023-04-24T01:27:05;12.30;;;8.60;;
76552;SDS011;65395;53.168;18.156;2023-04-24T01:29:32;17.30;;;10.50;;
76552;SDS011;65395;53.168;18.156;2023-04-24T01:32:00;16.80;;;11.10;;
76552;SDS011;65395;53.168;18.156;2023-04-24T01:34:27;17.90;;;11.30;;
76552;SDS011;65395;53.168;18.156;2023-04-24T01:36:54;17.80;;;11.80;;
76552;SDS011;65395;53.168;18.156;2023-04-24T01:39:21;20.10;;;10.90;;
76552;SDS011;65395;53.168;18.156;2023-04-24T01:41:49;16.70;;;9.50;;
76552;SDS011;65395;53.168;18.156;2023-04-24T01:44:18;13.30;;;9.30;;
76552;SDS011;65395;53.168;18.156;2023-04-24T01:46:45;12.40;;;9.40;;
76552;SDS011;65395;53.168;18.156;2023-04-24T01:49:12;13.40;;;9.20;;
76552;SDS011;65395;53.168;18.156;2023-04-24T01:51:39;10.80;;;8.60;;
76552;SDS011;65395;53.168;18.156;2023-04-24T01:54:05;10.80;;;8.40;;
76552;SDS011;65395;53.168;18.156;2023-04-24T01:56:33;15.80;;;9.30;;
76552;SDS011;65395;53.168;18.156;2023-04-24T01:59:02;19.50;;;11.10;;
76552;SDS011;65395;53.168;18.156;2023-04-24T02:01:34;16.00;;;11.00;;
76552;SDS011;65395;53.168;18.156;2023-04-24T02:04:02;15.00;;;10.10;;
76552;SDS011;65395;53.168;18.156;2023-04-24T02:06:30;17.70;;;10.70;;
76552;SDS011;65395;53.168;18.156;2023-04-24T02:09:00;15.80;;;10.80;;
76552;SDS011;65395;53.168;18.156;2023-04-24T02:11:28;15.00;;;10.70;;
76552;SDS011;65395;53.168;18.156;2023-04-24T02:13:55;15.80;;;10.10;;
76552;SDS011;65395;53.168;18.156;2023-04-24T02:16:22;13.50;;;9.50;;
76552;SDS011;65395;53.168;18.156;2023-04-24T02:18:50;15.00;;;9.90;;
76552;SDS011;65395;53.168;18.156;2023-04-24T02:21:17;14.70;;;10.40;;
76552;SDS011;65395;53.168;18.156;2023-04-24T02:23:44;16.00;;;10.20;;
76552;SDS011;65395;53.168;18.156;2023-04-24T02:26:12;15.90;;;11.20;;
76552;SDS011;65395;53.168;18.156;2023-04-24T02:28:39;16.40;;;10.90;;
76552;SDS011;65395;53.168;18.156;2023-04-24T02:31:06;16.60;;;10.60;;
76552;SDS011;65395;53.168;18.156;2023-04-24T02:33:33;16.30;;;11.30;;
76552;SDS011;65395;53.168;18.156;2023-04-24T02:36:00;17.80;;;11.50;;
76552;SDS011;65395;53.168;18.156;2023-04-24T02:38:27;18.30;;;11.70;;
76552;SDS011;65395;53.168;18.156;2023-04-24T02:40:53;21.60;;;11.70;;
76552;SDS011;65395;53.168;18.156;2023-04-24T02:43:20;27.90;;;14.10;;
76552;SDS011;65395;53.168;18.156;2023-04-24T02:45:47;17.70;;;11.50;;
76552;SDS011;65395;53.168;18.156;2023-04-24T02:48:15;18.90;;;11.10;;
76552;SDS011;65395;53.168;18.156;2023-04-24T02:50:42;18.00;;;11.20;;
76552;SDS011;65395;53.168;18.156;2023-04-24T02:53:09;19.40;;;11.60;;
76552;SDS011;65395;53.168;18.156;2023-04-24T02:55:36;18.50;;;11.90;;
76552;SDS011;65395;53.168;18.156;2023-04-24T02:58:03;17.50;;;11.90;;
76552;SDS011;65395;53.168;18.156;2023-04-24T03:00:30;18.00;;;11.40;;
76552;SDS011;65395;53.168;18.156;2023-04-24T03:02:56;21.50;;;12.10;;
76552;SDS011;65395;53.168;18.156;2023-04-24T03:05:23;18.70;;;10.80;;
76552;SDS011;65395;53.168;18.156;2023-04-24T03:07:50;18.40;;;10.90;;
76552;SDS011;65395;53.168;18.156;2023-04-24T03:10:18;18.00;;;11.20;;
76552;SDS011;65395;53.168;18.156;2023-04-24T03:12:45;18.30;;;11.10;;
76552;SDS011;65395;53.168;18.156;2023-04-24T03:15:12;21.40;;;12.50;;
76552;SDS011;65395;53.168;18.156;2023-04-24T03:17:39;18.50;;;12.60;;
76552;SDS011;65395;53.168;18.156;2023-04-24T03:20:06;18.90;;;12.50;;
76552;SDS011;65395;53.168;18.156;2023-04-24T03:22:35;18.10;;;12.10;;
76552;SDS011;65395;53.168;18.156;2023-04-24T03:25:03;20.30;;;13.20;;
76552;SDS011;65395;53.168;18.156;2023-04-24T03:27:30;19.00;;;12.40;;
76552;SDS011;65395;53.168;18.156;2023-04-24T03:30:02;19.30;;;12.40;;
76552;SDS011;65395;53.168;18.156;2023-04-24T03:32:39;18.90;;;12.00;;
76552;SDS011;65395;53.168;18.156;2023-04-24T03:35:07;18.80;;;11.60;;
76552;SDS011;65395;53.168;18.156;2023-04-24T03:37:35;18.50;;;11.80;;
76552;SDS011;65395;53.168;18.156;2023-04-24T03:40:17;19.30;;;12.70;;
76552;SDS011;65395;53.168;18.156;2023-04-24T03:42:44;24.10;;;15.00;;
76552;SDS011;65395;53.168;18.156;2023-04-24T03:45:10;22.40;;;14.90;;
76552;SDS011;65395;53.168;18.156;2023-04-24T03:47:39;25.70;;;15.30;;
76552;SDS011;65395;53.168;18.156;2023-04-24T03:50:06;26.00;;;15.80;;
76552;SDS011;65395;53.168;18.156;2023-04-24T03:52:34;24.20;;;16.30;;
76552;SDS011;65395;53.168;18.156;2023-04-24T03:55:01;26.60;;;16.20;;
76552;SDS011;65395;53.168;18.156;2023-04-24T03:57:28;24.20;;;16.60;;
76552;SDS011;65395;53.168;18.156;2023-04-24T04:00:03;24.80;;;16.40;;
76552;SDS011;65395;53.168;18.156;2023-04-24T04:02:41;26.30;;;15.70;;
76552;SDS011;65395;53.168;18.156;2023-04-24T04:05:08;25.70;;;16.20;;
76552;SDS011;65395;53.168;18.156;2023-04-24T04:07:35;24.30;;;16.50;;
76552;SDS011;65395;53.168;18.156;2023-04-24T04:10:02;21.90;;;15.50;;
76552;SDS011;65395;53.168;18.156;2023-04-24T04:12:29;21.30;;;15.40;;
76552;SDS011;65395;53.168;18.156;2023-04-24T04:14:56;21.00;;;14.30;;
76552;SDS011;65395;53.168;18.156;2023-04-24T04:17:23;22.80;;;15.50;;
76552;SDS011;65395;53.168;18.156;2023-04-24T04:19:50;23.40;;;14.40;;
76552;SDS011;65395;53.168;18.156;2023-04-24T04:22:17;25.00;;;14.60;;
76552;SDS011;65395;53.168;18.156;2023-04-24T04:24:47;23.70;;;15.00;;
76552;SDS011;65395;53.168;18.156;2023-04-24T04:27:14;23.10;;;15.00;;
76552;SDS011;65395;53.168;18.156;2023-04-24T04:29:49;20.90;;;15.30;;
76552;SDS011;65395;53.168;18.156;2023-04-24T04:32:16;23.70;;;14.70;;
76552;SDS011;65395;53.168;18.156;2023-04-24T04:34:43;23.30;;;15.80;;
76552;SDS011;65395;53.168;18.156;2023-04-24T04:37:11;21.20;;;15.10;;
76552;SDS011;65395;53.168;18.156;2023-04-24T04:39:51;27.20;;;15.60;;
76552;SDS011;65395;53.168;18.156;2023-04-24T04:42:23;22.00;;;15.80;;
76552;SDS011;65395;53.168;18.156;2023-04-24T04:44:50;27.80;;;15.90;;
76552;SDS011;65395;53.168;18.156;2023-04-24T04:47:20;24.20;;;15.70;;
76552;SDS011;65395;53.168;18.156;2023-04-24T04:49:50;28.50;;;16.00;;
76552;SDS011;65395;53.168;18.156;2023-04-24T04:52:21;25.50;;;17.30;;
76552;SDS011;65395;53.168;18.156;2023-04-24T04:54:53;28.90;;;18.70;;
76552;SDS011;65395;53.168;18.156;2023-04-24T04:57:20;27.60;;;17.70;;
76552;SDS011;65395;53.168;18.156;2023-04-24T04:59:47;26.20;;;16.80;;
76552;SDS011;65395;53.168;18.156;2023-04-24T05:02:21;25.00;;;16.80;;
76552;SDS011;65395;53.168;18.156;2023-04-24T05:04:47;25.80;;;16.30;;
76552;SDS011;65395;53.168;18.156;2023-04-24T05:07:14;25.50;;;16.10;;
76552;SDS011;65395;53.168;18.156;2023-04-24T05:09:44;23.20;;;15.60;;
76552;SDS011;65395;53.168;18.156;2023-04-24T05:12:11;21.70;;;15.80;;
76552;SDS011;65395;53.168;18.156;2023-04-24T05:14:43;23.10;;;15.40;;
76552;SDS011;65395;53.168;18.156;2023-04-24T05:17:10;23.10;;;16.40;;
76552;SDS011;65395;53.168;18.156;2023-04-24T05:19:37;24.00;;;15.00;;
76552;SDS011;65395;53.168;18.156;2023-04-24T05:22:05;24.50;;;14.90;;
76552;SDS011;65395;53.168;18.156;2023-04-24T05:24:33;20.50;;;14.90;;
76552;SDS011;65395;53.168;18.156;2023-04-24T05:27:10;20.10;;;14.20;;
76552;SDS011;65395;53.168;18.156;2023-04-24T05:29:39;22.90;;;14.80;;
76552;SDS011;65395;53.168;18.156;2023-04-24T05:32:06;19.40;;;14.30;;
76552;SDS011;65395;53.168;18.156;2023-04-24T05:34:34;20.30;;;14.60;;
76552;SDS011;65395;53.168;18.156;2023-04-24T05:37:01;20.50;;;14.50;;
76552;SDS011;65395;53.168;18.156;2023-04-24T05:39:28;24.20;;;14.20;;
76552;SDS011;65395;53.168;18.156;2023-04-24T05:41:55;22.60;;;14.70;;
76552;SDS011;65395;53.168;18.156;2023-04-24T05:44:24;24.70;;;14.10;;
76552;SDS011;65395;53.168;18.156;2023-04-24T05:46:50;18.20;;;13.60;;
76552;SDS011;65395;53.168;18.156;2023-04-24T05:49:17;19.50;;;13.20;;
76552;SDS011;65395;53.168;18.156;2023-04-24T05:51:45;20.20;;;13.40;;
76552;SDS011;65395;53.168;18.156;2023-04-24T05:54:12;20.30;;;13.40;;
76552;SDS011;65395;53.168;18.156;2023-04-24T05:56:38;18.30;;;13.20;;
76552;SDS011;65395;53.168;18.156;2023-04-24T05:59:06;19.70;;;13.00;;
76552;SDS011;65395;53.168;18.156;2023-04-24T06:01:34;26.30;;;13.70;;
76552;SDS011;65395;53.168;18.156;2023-04-24T06:04:10;16.90;;;12.90;;
76552;SDS011;65395;53.168;18.156;2023-04-24T06:06:39;19.10;;;13.30;;
76552;SDS011;65395;53.168;18.156;2023-04-24T06:09:07;21.20;;;14.10;;
76552;SDS011;65395;53.168;18.156;2023-04-24T06:11:34;19.90;;;13.00;;
76552;SDS011;65395;53.168;18.156;2023-04-24T06:14:01;19.80;;;13.10;;
76552;SDS011;65395;53.168;18.156;2023-04-24T06:16:38;26.90;;;14.20;;
76552;SDS011;65395;53.168;18.156;2023-04-24T06:19:12;18.40;;;13.00;;
76552;SDS011;65395;53.168;18.156;2023-04-24T06:21:39;17.20;;;12.70;;
76552;SDS011;65395;53.168;18.156;2023-04-24T06:24:06;17.70;;;12.20;;
76552;SDS011;65395;53.168;18.156;2023-04-24T06:26:33;19.30;;;12.40;;
76552;SDS011;65395;53.168;18.156;2023-04-24T06:29:00;17.40;;;11.80;;
76552;SDS011;65395;53.168;18.156;2023-04-24T06:31:27;17.00;;;12.70;;
76552;SDS011;65395;53.168;18.156;2023-04-24T06:33:54;20.10;;;12.30;;
76552;SDS011;65395;53.168;18.156;2023-04-24T06:36:21;18.00;;;12.00;;
76552;SDS011;65395;53.168;18.156;2023-04-24T06:38:48;16.90;;;12.30;;
76552;SDS011;65395;53.168;18.156;2023-04-24T06:41:15;18.00;;;11.90;;
76552;SDS011;65395;53.168;18.156;2023-04-24T06:43:41;17.40;;;12.00;;
76552;SDS011;65395;53.168;18.156;2023-04-24T06:46:08;15.60;;;11.80;;
76552;SDS011;65395;53.168;18.156;2023-04-24T06:48:35;17.40;;;11.90;;
76552;SDS011;65395;53.168;18.156;2023-04-24T06:51:02;16.00;;;11.30;;
76552;SDS011;65395;53.168;18.156;2023-04-24T06:53:28;17.80;;;11.30;;
76552;SDS011;65395;53.168;18.156;2023-04-24T06:55:55;16.50;;;11.60;;
76552;SDS011;65395;53.168;18.156;2023-04-24T06:58:23;17.60;;;11.20;;
76552;SDS011;65395;53.168;18.156;2023-04-24T07:00:51;18.00;;;10.90;;
76552;SDS011;65395;53.168;18.156;2023-04-24T07:03:18;17.10;;;11.00;;
76552;SDS011;65395;53.168;18.156;2023-04-24T07:05:44;15.70;;;11.20;;
76552;SDS011;65395;53.168;18.156;2023-04-24T07:08:12;16.50;;;11.10;;
76552;SDS011;65395;53.168;18.156;2023-04-24T07:10:39;17.40;;;11.10;;
76552;SDS011;65395;53.168;18.156;2023-04-24T07:13:06;13.70;;;10.60;;
76552;SDS011;65395;53.168;18.156;2023-04-24T07:15:34;16.40;;;11.00;;
76552;SDS011;65395;53.168;18.156;2023-04-24T07:18:01;14.30;;;9.80;;
76552;SDS011;65395;53.168;18.156;2023-04-24T07:20:28;18.40;;;10.80;;
76552;SDS011;65395;53.168;18.156;2023-04-24T07:22:54;15.10;;;10.60;;
76552;SDS011;65395;53.168;18.156;2023-04-24T07:25:21;13.60;;;10.00;;
76552;SDS011;65395;53.168;18.156;2023-04-24T07:27:48;16.20;;;10.60;;
76552;SDS011;65395;53.168;18.156;2023-04-24T07:30:15;14.80;;;10.70;;
76552;SDS011;65395;53.168;18.156;2023-04-24T07:32:42;15.80;;;10.40;;
76552;SDS011;65395;53.168;18.156;2023-04-24T07:35:09;14.00;;;10.10;;
76552;SDS011;65395;53.168;18.156;2023-04-24T07:37:36;17.80;;;9.80;;
76552;SDS011;65395;53.168;18.156;2023-04-24T07:40:03;14.90;;;9.90;;
76552;SDS011;65395;53.168;18.156;2023-04-24T07:42:31;13.70;;;9.70;;
76552;SDS011;65395;53.168;18.156;2023-04-24T07:45:01;12.70;;;9.60;;
76552;SDS011;65395;53.168;18.156;2023-04-24T07:47:28;13.30;;;9.80;;
76552;SDS011;65395;53.168;18.156;2023-04-24T07:49:54;13.60;;;10.30;;
76552;SDS011;65395;53.168;18.156;2023-04-24T07:52:21;13.30;;;9.40;;
76552;SDS011;65395;53.168;18.156;2023-04-24T07:54:48;14.30;;;9.70;;
76552;SDS011;65395;53.168;18.156;2023-04-24T07:57:16;11.90;;;9.60;;
76552;SDS011;65395;53.168;18.156;2023-04-24T07:59:43;12.10;;;8.90;;
76552;SDS011;65395;53.168;18.156;2023-04-24T08:02:10;15.20;;;9.20;;
76552;SDS011;65395;53.168;18.156;2023-04-24T08:04:39;12.30;;;9.20;;
76552;SDS011;65395;53.168;18.156;2023-04-24T08:07:06;12.80;;;9.00;;
76552;SDS011;65395;53.168;18.156;2023-04-24T08:09:33;12.70;;;8.90;;
76552;SDS011;65395;53.168;18.156;2023-04-24T08:12:00;12.20;;;8.80;;
76552;SDS011;65395;53.168;18.156;2023-04-24T08:14:27;11.70;;;8.30;;
76552;SDS011;65395;53.168;18.156;2023-04-24T08:16:54;9.20;;;7.70;;
76552;SDS011;65395;53.168;18.156;2023-04-24T08:19:22;11.90;;;8.00;;
76552;SDS011;65395;53.168;18.156;2023-04-24T08:21:49;11.50;;;7.30;;
76552;SDS011;65395;53.168;18.156;2023-04-24T08:24:15;8.40;;;7.40;;
76552;SDS011;65395;53.168;18.156;2023-04-24T08:26:42;9.60;;;7.10;;
76552;SDS011;65395;53.168;18.156;2023-04-24T08:29:09;10.70;;;6.90;;
76552;SDS011;65395;53.168;18.156;2023-04-24T08:31:36;10.60;;;7.30;;
76552;SDS011;65395;53.168;18.156;2023-04-24T08:34:03;8.70;;;6.80;;
76552;SDS011;65395;53.168;18.156;2023-04-24T08:36:30;7.80;;;6.50;;
76552;SDS011;65395;53.168;18.156;2023-04-24T08:38:58;11.70;;;6.70;;
76552;SDS011;65395;53.168;18.156;2023-04-24T08:41:25;8.10;;;6.30;;
76552;SDS011;65395;53.168;18.156;2023-04-24T08:43:53;7.80;;;6.50;;
76552;SDS011;65395;53.168;18.156;2023-04-24T08:46:21;9.40;;;6.70;;
76552;SDS011;65395;53.168;18.156;2023-04-24T08:48:49;9.50;;;6.20;;
76552;SDS011;65395;53.168;18.156;2023-04-24T08:51:17;8.00;;;5.90;;
76552;SDS011;65395;53.168;18.156;2023-04-24T08:53:45;7.20;;;6.10;;
76552;SDS011;65395;53.168;18.156;2023-04-24T08:56:12;7.60;;;6.10;;
76552;SDS011;65395;53.168;18.156;2023-04-24T08:58:40;7.80;;;6.00;;
76552;SDS011;65395;53.168;18.156;2023-04-24T09:01:07;10.40;;;6.40;;
76552;SDS011;65395;53.168;18.156;2023-04-24T09:03:35;10.20;;;6.40;;
76552;SDS011;65395;53.168;18.156;2023-04-24T09:06:02;9.30;;;6.00;;
76552;SDS011;65395;53.168;18.156;2023-04-24T09:08:32;10.30;;;6.40;;
76552;SDS011;65395;53.168;18.156;2023-04-24T09:10:59;7.80;;;5.80;;
76552;SDS011;65395;53.168;18.156;2023-04-24T09:13:28;7.70;;;6.20;;
76552;SDS011;65395;53.168;18.156;2023-04-24T09:15:57;9.00;;;6.60;;
76552;SDS011;65395;53.168;18.156;2023-04-24T09:18:23;9.40;;;6.50;;
76552;SDS011;65395;53.168;18.156;2023-04-24T09:23:30;9.80;;;6.60;;
76552;SDS011;65395;53.168;18.156;2023-04-24T09:25:58;9.80;;;6.80;;
76552;SDS011;65395;53.168;18.156;2023-04-24T09:28:29;10.00;;;6.90;;
76552;SDS011;65395;53.168;18.156;2023-04-24T09:31:06;12.00;;;6.90;;
76552;SDS011;65395;53.168;18.156;2023-04-24T09:33:53;9.30;;;7.00;;
76552;SDS011;65395;53.168;18.156;2023-04-24T09:39:00;9.50;;;6.80;;
76552;SDS011;65395;53.168;18.156;2023-04-24T09:41:28;9.30;;;7.00;;
76552;SDS011;65395;53.168;18.156;2023-04-24T09:43:55;10.20;;;6.80;;
76552;SDS011;65395;53.168;18.156;2023-04-24T09:46:30;7.60;;;6.40;;
76552;SDS011;65395;53.168;18.156;2023-04-24T09:49:02;9.30;;;7.10;;
76552;SDS011;65395;53.168;18.156;2023-04-24T09:51:37;8.90;;;6.70;;
76552;SDS011;65395;53.168;18.156;2023-04-24T09:54:05;7.50;;;6.40;;
76552;SDS011;65395;53.168;18.156;2023-04-24T09:56:42;9.40;;;6.50;;
76552;SDS011;65395;53.168;18.156;2023-04-24T09:59:12;9.30;;;6.80;;
76552;SDS011;65395;53.168;18.156;2023-04-24T10:01:39;8.60;;;6.70;;
76552;SDS011;65395;53.168;18.156;2023-04-24T10:04:27;8.30;;;6.80;;
76552;SDS011;65395;53.168;18.156;2023-04-24T10:06:55;8.00;;;6.60;;
76552;SDS011;65395;53.168;18.156;2023-04-24T10:09:24;8.80;;;7.00;;
76552;SDS011;65395;53.168;18.156;2023-04-24T10:11:53;8.80;;;6.30;;
76552;SDS011;65395;53.168;18.156;2023-04-24T10:14:22;9.40;;;7.00;;
76552;SDS011;65395;53.168;18.156;2023-04-24T10:16:50;8.30;;;6.70;;
76552;SDS011;65395;53.168;18.156;2023-04-24T10:19:19;9.20;;;6.70;;
76552;SDS011;65395;53.168;18.156;2023-04-24T10:21:50;10.60;;;6.70;;
76552;SDS011;65395;53.168;18.156;2023-04-24T10:24:18;9.00;;;6.90;;
76552;SDS011;65395;53.168;18.156;2023-04-24T10:26:48;8.10;;;6.30;;
76552;SDS011;65395;53.168;18.156;2023-04-24T10:29:17;9.50;;;6.50;;
76552;SDS011;65395;53.168;18.156;2023-04-24T10:31:44;7.60;;;5.70;;
76552;SDS011;65395;53.168;18.156;2023-04-24T10:34:13;11.00;;;6.20;;
76552;SDS011;65395;53.168;18.156;2023-04-24T10:36:43;8.30;;;6.00;;
76552;SDS011;65395;53.168;18.156;2023-04-24T10:39:14;6.90;;;6.10;;
76552;SDS011;65395;53.168;18.156;2023-04-24T10:41:42;8.20;;;6.20;;
76552;SDS011;65395;53.168;18.156;2023-04-24T10:44:10;7.30;;;6.20;;
76552;SDS011;65395;53.168;18.156;2023-04-24T10:46:38;8.70;;;5.70;;
76552;SDS011;65395;53.168;18.156;2023-04-24T10:49:08;8.10;;;5.90;;
76552;SDS011;65395;53.168;18.156;2023-04-24T10:54:25;6.50;;;5.80;;
76552;SDS011;65395;53.168;18.156;2023-04-24T10:57:29;7.60;;;5.90;;
76552;SDS011;65395;53.168;18.156;2023-04-24T11:02:48;8.80;;;6.80;;
76552;SDS011;65395;53.168;18.156;2023-04-24T11:05:16;8.40;;;6.50;;
76552;SDS011;65395;53.168;18.156;2023-04-24T11:10:30;8.30;;;6.90;;
76552;SDS011;65395;53.168;18.156;2023-04-24T11:12:57;9.70;;;7.20;;
76552;SDS011;65395;53.168;18.156;2023-04-24T11:15:23;12.40;;;7.60;;
76552;SDS011;65395;53.168;18.156;2023-04-24T11:17:50;10.20;;;7.80;;
76552;SDS011;65395;53.168;18.156;2023-04-24T11:20:22;9.40;;;8.40;;
76552;SDS011;65395;53.168;18.156;2023-04-24T11:22:49;11.50;;;8.30;;
76552;SDS011;65395;53.168;18.156;2023-04-24T11:25:20;12.80;;;9.30;;
76552;SDS011;65395;53.168;18.156;2023-04-24T11:27:49;13.20;;;9.00;;
76552;SDS011;65395;53.168;18.156;2023-04-24T11:30:17;12.90;;;9.10;;
76552;SDS011;65395;53.168;18.156;2023-04-24T11:32:47;19.80;;;8.50;;
76552;SDS011;65395;53.168;18.156;2023-04-24T11:35:17;13.10;;;8.00;;
76552;SDS011;65395;53.168;18.156;2023-04-24T11:37:47;9.40;;;7.50;;
76552;SDS011;65395;53.168;18.156;2023-04-24T11:40:16;12.80;;;8.20;;
76552;SDS011;65395;53.168;18.156;2023-04-24T11:42:48;11.00;;;8.20;;
76552;SDS011;65395;53.168;18.156;2023-04-24T11:45:21;10.20;;;8.00;;
76552;SDS011;65395;53.168;18.156;2023-04-24T11:47:50;13.50;;;7.60;;
76552;SDS011;65395;53.168;18.156;2023-04-24T11:50:18;12.00;;;8.10;;
76552;SDS011;65395;53.168;18.156;2023-04-24T11:52:46;13.40;;;8.50;;
76552;SDS011;65395;53.168;18.156;2023-04-24T11:57:58;15.40;;;8.70;;
76552;SDS011;65395;53.168;18.156;2023-04-24T12:00:27;13.30;;;9.30;;
76552;SDS011;65395;53.168;18.156;2023-04-24T12:05:40;11.30;;;8.50;;
76552;SDS011;65395;53.168;18.156;2023-04-24T12:08:07;9.60;;;8.20;;
76552;SDS011;65395;53.168;18.156;2023-04-24T12:10:34;12.30;;;8.90;;
76552;SDS011;65395;53.168;18.156;2023-04-24T12:13:01;10.50;;;8.70;;
76552;SDS011;65395;53.168;18.156;2023-04-24T12:15:28;12.70;;;8.30;;
76552;SDS011;65395;53.168;18.156;2023-04-24T12:17:55;9.90;;;8.50;;
76552;SDS011;65395;53.168;18.156;2023-04-24T12:20:24;10.40;;;8.60;;
76552;SDS011;65395;53.168;18.156;2023-04-24T12:22:54;9.80;;;7.80;;
76552;SDS011;65395;53.168;18.156;2023-04-24T12:25:23;10.70;;;8.40;;
76552;SDS011;65395;53.168;18.156;2023-04-24T12:27:54;13.60;;;8.20;;
76552;SDS011;65395;53.168;18.156;2023-04-24T12:30:26;12.30;;;7.50;;
76552;SDS011;65395;53.168;18.156;2023-04-24T12:32:56;10.10;;;8.00;;
76552;SDS011;65395;53.168;18.156;2023-04-24T12:35:24;9.40;;;7.80;;
76552;SDS011;65395;53.168;18.156;2023-04-24T12:37:53;9.20;;;7.00;;
76552;SDS011;65395;53.168;18.156;2023-04-24T12:40:21;8.80;;;6.10;;
76552;SDS011;65395;53.168;18.156;2023-04-24T12:42:48;7.80;;;6.00;;
76552;SDS011;65395;53.168;18.156;2023-04-24T12:45:17;10.70;;;5.70;;
76552;SDS011;65395;53.168;18.156;2023-04-24T12:47:45;8.20;;;5.40;;
76552;SDS011;65395;53.168;18.156;2023-04-24T12:50:13;7.20;;;4.60;;
76552;SDS011;65395;53.168;18.156;2023-04-24T12:52:41;9.50;;;4.50;;
76552;SDS011;65395;53.168;18.156;2023-04-24T12:55:09;6.70;;;4.10;;
76552;SDS011;65395;53.168;18.156;2023-04-24T12:57:37;7.00;;;4.30;;
76552;SDS011;65395;53.168;18.156;2023-04-24T13:00:06;6.50;;;4.00;;
76552;SDS011;65395;53.168;18.156;2023-04-24T13:02:34;5.90;;;4.00;;
76552;SDS011;65395;53.168;18.156;2023-04-24T13:05:01;8.30;;;4.50;;
76552;SDS011;65395;53.168;18.156;2023-04-24T13:07:28;4.70;;;3.80;;
76552;SDS011;65395;53.168;18.156;2023-04-24T13:09:55;4.80;;;4.10;;
76552;SDS011;65395;53.168;18.156;2023-04-24T13:12:23;4.10;;;3.70;;
76552;SDS011;65395;53.168;18.156;2023-04-24T13:14:52;6.40;;;4.00;;
76552;SDS011;65395;53.168;18.156;2023-04-24T13:17:19;3.80;;;3.50;;
76552;SDS011;65395;53.168;18.156;2023-04-24T13:19:46;7.90;;;4.00;;
76552;SDS011;65395;53.168;18.156;2023-04-24T13:22:13;6.80;;;4.40;;
76552;SDS011;65395;53.168;18.156;2023-04-24T13:24:39;6.90;;;4.00;;
76552;SDS011;65395;53.168;18.156;2023-04-24T13:27:07;9.10;;;4.00;;
76552;SDS011;65395;53.168;18.156;2023-04-24T13:29:35;4.30;;;3.80;;
76552;SDS011;65395;53.168;18.156;2023-04-24T13:32:03;7.90;;;4.10;;
76552;SDS011;65395;53.168;18.156;2023-04-24T13:34:30;4.90;;;4.00;;
76552;SDS011;65395;53.168;18.156;2023-04-24T13:36:57;6.00;;;4.60;;
76552;SDS011;65395;53.168;18.156;2023-04-24T13:39:25;5.40;;;4.80;;
76552;SDS011;65395;53.168;18.156;2023-04-24T13:41:52;5.30;;;4.70;;
76552;SDS011;65395;53.168;18.156;2023-04-24T13:44:20;9.30;;;5.50;;
76552;SDS011;65395;53.168;18.156;2023-04-24T13:46:49;9.90;;;5.30;;
76552;SDS011;65395;53.168;18.156;2023-04-24T13:49:20;7.60;;;5.30;;
76552;SDS011;65395;53.168;18.156;2023-04-24T13:51:48;8.30;;;6.00;;
76552;SDS011;65395;53.168;18.156;2023-04-24T13:54:15;8.70;;;6.10;;
76552;SDS011;65395;53.168;18.156;2023-04-24T13:56:42;9.70;;;5.60;;
76552;SDS011;65395;53.168;18.156;2023-04-24T13:59:09;7.40;;;5.60;;
76552;SDS011;65395;53.168;18.156;2023-04-24T14:01:36;11.40;;;5.80;;
76552;SDS011;65395;53.168;18.156;2023-04-24T14:04:02;9.40;;;5.80;;
76552;SDS011;65395;53.168;18.156;2023-04-24T14:06:29;7.20;;;6.30;;
76552;SDS011;65395;53.168;18.156;2023-04-24T14:08:56;8.30;;;6.10;;
76552;SDS011;65395;53.168;18.156;2023-04-24T14:11:22;12.20;;;6.60;;
76552;SDS011;65395;53.168;18.156;2023-04-24T14:13:49;8.80;;;6.70;;
76552;SDS011;65395;53.168;18.156;2023-04-24T14:16:16;10.80;;;6.90;;
76552;SDS011;65395;53.168;18.156;2023-04-24T14:18:43;11.30;;;7.40;;
76552;SDS011;65395;53.168;18.156;2023-04-24T14:21:09;11.00;;;6.90;;
76552;SDS011;65395;53.168;18.156;2023-04-24T14:23:36;12.50;;;6.80;;
76552;SDS011;65395;53.168;18.156;2023-04-24T14:26:03;8.70;;;6.60;;
76552;SDS011;65395;53.168;18.156;2023-04-24T14:28:30;7.30;;;4.70;;
76552;SDS011;65395;53.168;18.156;2023-04-24T14:30:57;4.60;;;4.10;;
76552;SDS011;65395;53.168;18.156;2023-04-24T14:33:24;5.70;;;4.30;;
76552;SDS011;65395;53.168;18.156;2023-04-24T14:35:50;7.50;;;4.30;;
76552;SDS011;65395;53.168;18.156;2023-04-24T14:38:17;10.50;;;4.80;;
76552;SDS011;65395;53.168;18.156;2023-04-24T14:40:44;5.80;;;4.50;;
76552;SDS011;65395;53.168;18.156;2023-04-24T14:43:11;5.20;;;4.30;;
76552;SDS011;65395;53.168;18.156;2023-04-24T14:45:38;7.90;;;4.10;;